createdAt,value
2018-06-17T00:02:15.092Z,61.22
2018-06-17T00:04:44.072Z,61.32
2018-06-17T00:07:12.104Z,61.32
2018-06-17T00:09:40.552Z,61.49
2018-06-17T00:12:09.417Z,61.55
2018-06-17T00:14:38.033Z,61.62
2018-06-17T00:17:06.403Z,61.73
2018-06-17T00:19:34.977Z,61.83
2018-06-17T00:22:03.368Z,62.07
2018-06-17T00:24:32.061Z,62.15
2018-06-17T00:27:00.727Z,62.26
2018-06-17T00:29:29.129Z,62.34
2018-06-17T00:31:57.483Z,62.37
2018-06-17T00:34:26.119Z,62.38
2018-06-17T00:36:54.465Z,62.53
2018-06-17T00:39:22.928Z,62.63
2018-06-17T00:41:51.666Z,62.80
2018-06-17T00:44:20.527Z,62.96
2018-06-17T00:46:48.832Z,63.00
2018-06-17T00:49:17.784Z,63.11
2018-06-17T00:51:45.889Z,63.28
2018-06-17T00:54:14.337Z,63.39
2018-06-17T00:56:43.029Z,63.49
2018-06-17T00:59:11.400Z,63.59
2018-06-17T01:01:39.965Z,63.80
2018-06-17T01:04:08.280Z,63.86
2018-06-17T01:06:36.616Z,63.89
2018-06-17T01:09:06.339Z,64.17
2018-06-17T01:11:37.076Z,64.21
2018-06-17T01:14:05.601Z,64.22
2018-06-17T01:17:59.029Z,64.31
2018-06-17T01:20:27.839Z,64.01
2018-06-17T01:22:56.715Z,64.13
2018-06-17T01:25:25.351Z,64.27
2018-06-17T01:27:53.824Z,64.37
2018-06-17T01:30:22.739Z,64.48
2018-06-17T01:32:51.285Z,64.56
2018-06-17T01:35:19.621Z,64.67
2018-06-17T01:37:48.303Z,64.83
2018-06-17T01:40:16.836Z,64.92
2018-06-17T01:42:45.198Z,65.12
2018-06-17T01:45:14.217Z,65.18
2018-06-17T01:47:43.057Z,65.49
2018-06-17T01:50:11.421Z,65.74
2018-06-17T01:52:42.631Z,65.92
2018-06-17T01:55:13.463Z,65.97
2018-06-17T01:57:41.836Z,66.09
2018-06-17T02:00:10.989Z,66.31
2018-06-17T02:02:39.328Z,66.47
2018-06-17T02:05:13.298Z,66.65
2018-06-17T02:07:47.594Z,66.65
2018-06-17T02:10:21.601Z,66.76
2018-06-17T02:12:50.376Z,66.93
2018-06-17T02:15:18.823Z,67.14
2018-06-17T02:17:47.292Z,67.59
2018-06-17T02:20:16.213Z,67.86
2018-06-17T02:22:44.229Z,68.24
2018-06-17T02:25:12.548Z,68.97
2018-06-17T02:27:41.081Z,69.97
2018-06-17T02:30:09.757Z,70.46
2018-06-17T02:32:37.890Z,70.85
2018-06-17T02:35:06.880Z,71.06
2018-06-17T02:37:35.609Z,70.95
2018-06-17T02:40:04.045Z,70.79
2018-06-17T02:42:33.063Z,70.65
2018-06-17T02:45:06.679Z,70.33
2018-06-17T02:47:40.620Z,70.17
2018-06-17T02:50:14.757Z,69.94
2018-06-17T02:52:48.760Z,69.96
2018-06-17T02:55:17.136Z,69.94
2018-06-17T02:57:45.969Z,69.89
2018-06-17T03:00:14.264Z,69.95
2018-06-17T03:02:42.766Z,70.29
2018-06-17T03:05:11.460Z,70.22
2018-06-17T03:07:40.175Z,70.35
2018-06-17T03:10:08.601Z,70.27
2018-06-17T03:12:37.256Z,70.50
2018-06-17T03:15:05.776Z,70.88
2018-06-17T03:17:34.334Z,71.26
2018-06-17T03:20:03.164Z,71.05
2018-06-17T03:22:31.926Z,71.06
2018-06-17T03:25:05.688Z,71.10
2018-06-17T03:27:40.304Z,71.02
2018-06-17T03:30:14.275Z,71.05
2018-06-17T03:32:48.392Z,71.10
2018-06-17T03:35:22.177Z,71.16
2018-06-17T03:37:50.554Z,71.15
2018-06-17T03:40:19.449Z,71.10
2018-06-17T03:42:47.775Z,71.24
2018-06-17T03:45:16.164Z,71.33
2018-06-17T03:47:44.856Z,71.33
2018-06-17T03:50:15.253Z,71.28
2018-06-17T03:52:43.665Z,71.28
2018-06-17T03:55:12.343Z,71.30
2018-06-17T03:57:42.392Z,71.39
2018-06-17T04:00:10.517Z,71.29
2018-06-17T04:02:39.004Z,71.19
2018-06-17T04:05:12.937Z,71.02
2018-06-17T04:07:41.294Z,70.93
2018-06-17T04:10:10.521Z,70.98
2018-06-17T04:12:39.073Z,71.10
2018-06-17T04:15:08.079Z,71.18
2018-06-17T04:17:37.083Z,71.29
2018-06-17T04:20:05.579Z,71.37
2018-06-17T04:22:33.976Z,71.34
2018-06-17T04:25:03.771Z,71.26
2018-06-17T04:27:33.418Z,71.16
2018-06-17T04:30:01.807Z,71.12
2018-06-17T04:32:30.849Z,71.00
2018-06-17T04:34:59.230Z,70.98
2018-06-17T04:37:27.751Z,70.92
2018-06-17T04:39:56.312Z,70.95
2018-06-17T04:42:24.380Z,70.90
2018-06-17T04:44:52.864Z,70.92
2018-06-17T04:47:21.785Z,70.87
2018-06-17T04:49:50.210Z,70.86
2018-06-17T04:52:19.334Z,70.84
2018-06-17T04:54:47.738Z,70.85
2018-06-17T04:57:15.942Z,70.92
2018-06-17T04:59:44.389Z,71.03
2018-06-17T05:02:12.769Z,71.15
2018-06-17T05:04:41.648Z,71.22
2018-06-17T05:07:09.840Z,71.48
2018-06-17T05:09:38.561Z,71.57
2018-06-17T05:12:11.472Z,71.61
2018-06-17T05:14:39.701Z,71.59
2018-06-17T05:17:08.041Z,71.63
2018-06-17T05:19:36.696Z,71.66
2018-06-17T05:22:05.508Z,71.65
2018-06-17T05:24:35.048Z,71.62
2018-06-17T05:27:03.397Z,71.80
2018-06-17T05:29:31.937Z,71.83
2018-06-17T05:32:00.297Z,71.98
2018-06-17T05:34:28.997Z,72.11
2018-06-17T05:36:57.282Z,72.28
2018-06-17T05:39:26.115Z,72.54
2018-06-17T05:41:55.718Z,72.80
2018-06-17T05:44:24.150Z,72.95
2018-06-17T05:46:52.753Z,72.95
2018-06-17T05:49:21.093Z,73.11
2018-06-17T05:51:50.837Z,73.07
2018-06-17T05:54:21.219Z,72.86
2018-06-17T05:56:50.130Z,72.63
2018-06-17T05:59:23.585Z,72.50
2018-06-17T06:01:51.738Z,72.16
2018-06-17T06:04:19.996Z,71.68
2018-06-17T06:06:48.678Z,71.74
2018-06-17T06:09:18.084Z,71.55
2018-06-17T06:11:46.947Z,71.49
2018-06-17T06:14:15.170Z,71.77
2018-06-17T06:16:44.147Z,72.59
2018-06-17T06:19:12.828Z,71.89
2018-06-17T06:21:41.273Z,70.96
2018-06-17T06:24:10.309Z,70.99
2018-06-17T06:26:39.268Z,71.36
2018-06-17T06:29:07.845Z,71.59
2018-06-17T06:31:36.665Z,71.76
2018-06-17T06:34:04.949Z,71.43
2018-06-17T06:36:33.177Z,71.20
2018-06-17T06:39:02.026Z,71.11
2018-06-17T06:41:30.976Z,71.15
2018-06-17T06:44:01.032Z,70.76
2018-06-17T06:46:30.297Z,70.52
2018-06-17T06:48:58.331Z,69.87
2018-06-17T06:51:27.054Z,68.95
2018-06-17T06:53:59.595Z,68.87
2018-06-17T06:56:28.340Z,68.34
2018-06-17T06:58:57.029Z,68.37
2018-06-17T07:01:36.971Z,68.09
2018-06-17T07:04:16.005Z,67.75
2018-06-17T07:06:55.747Z,67.35
2018-06-17T07:09:35.529Z,66.53
2018-06-17T07:12:03.817Z,66.70
2018-06-17T07:14:32.199Z,66.78
2018-06-17T07:17:11.775Z,66.99
2018-06-17T07:19:40.304Z,67.32
2018-06-17T07:22:08.386Z,67.99
2018-06-17T07:24:37.775Z,68.20
2018-06-17T07:27:17.078Z,67.70
2018-06-17T07:29:46.873Z,67.14
2018-06-17T07:32:16.327Z,67.48
2018-06-17T07:34:45.705Z,67.81
2018-06-17T07:37:14.793Z,68.14
2018-06-17T07:40:19.317Z,68.53
2018-06-17T07:42:50.663Z,67.91
2018-06-17T07:45:19.232Z,67.07
2018-06-17T07:47:56.393Z,65.65
2018-06-17T07:50:35.854Z,64.31
2018-06-17T07:53:16.712Z,64.27
2018-06-17T07:55:45.229Z,64.06
2018-06-17T07:58:14.360Z,64.00
2018-06-17T08:00:43.174Z,64.72
2018-06-17T08:03:11.597Z,65.09
2018-06-17T08:05:39.765Z,65.43
2018-06-17T08:08:08.789Z,65.58
2018-06-17T08:10:39.295Z,66.05
2018-06-17T08:13:10.906Z,66.31
2018-06-17T08:15:40.760Z,66.49
2018-06-17T08:18:09.376Z,66.37
2018-06-17T08:20:38.610Z,66.52
2018-06-17T08:23:07.664Z,66.71
2018-06-17T08:25:36.860Z,67.11
2018-06-17T08:28:06.605Z,66.31
2018-06-17T08:30:37.431Z,65.93
2018-06-17T08:33:06.328Z,65.38
2018-06-17T08:35:39.661Z,65.22
2018-06-17T08:38:09.339Z,64.81
2018-06-17T08:40:40.525Z,64.73
2018-06-17T08:43:09.998Z,64.75
2018-06-17T08:45:40.206Z,65.07
2018-06-17T08:48:09.510Z,65.40
2018-06-17T08:50:38.144Z,65.20
2018-06-17T08:53:07.593Z,65.06
2018-06-17T08:55:35.966Z,65.03
2018-06-17T08:58:04.435Z,64.99
2018-06-17T09:00:33.162Z,65.22
2018-06-17T09:03:02.388Z,65.20
2018-06-17T09:05:30.728Z,64.76
2018-06-17T09:07:59.051Z,63.71
2018-06-17T09:10:27.498Z,62.98
2018-06-17T09:12:55.609Z,62.65
2018-06-17T09:15:24.161Z,61.80
2018-06-17T09:17:53.479Z,61.39
2018-06-17T09:20:22.289Z,60.96
2018-06-17T09:22:50.387Z,60.86
2018-06-17T09:25:18.679Z,60.27
2018-06-17T09:27:47.876Z,60.34
2018-06-17T09:30:17.042Z,60.58
2018-06-17T09:32:45.589Z,60.01
2018-06-17T09:35:13.801Z,59.53
2018-06-17T09:37:42.024Z,58.75
2018-06-17T09:40:10.147Z,58.98
2018-06-17T09:42:38.237Z,56.92
2018-06-17T09:45:06.934Z,54.64
2018-06-17T09:47:35.323Z,53.29
2018-06-17T09:50:03.676Z,52.20
2018-06-17T09:52:32.084Z,51.31
2018-06-17T09:55:00.578Z,51.16
2018-06-17T09:57:28.805Z,48.87
2018-06-17T09:59:57.370Z,47.62
2018-06-17T10:02:25.826Z,48.06
2018-06-17T10:04:54.690Z,48.43
2018-06-17T10:07:23.713Z,47.16
2018-06-17T10:10:03.094Z,47.69
2018-06-17T10:12:32.288Z,46.88
2018-06-17T10:15:01.432Z,46.10
2018-06-17T10:17:30.638Z,47.47
2018-06-17T10:20:05.327Z,48.46
2018-06-17T10:22:36.054Z,48.75
2018-06-17T10:25:09.393Z,48.04
2018-06-17T10:27:37.753Z,48.06
2018-06-17T10:30:07.396Z,47.77
2018-06-17T10:32:36.633Z,47.62
2018-06-17T10:35:05.654Z,46.83
2018-06-17T10:37:35.991Z,46.53
2018-06-17T10:40:04.809Z,45.66
2018-06-17T10:42:33.305Z,45.02
2018-06-17T10:45:01.781Z,44.68
2018-06-17T10:47:30.045Z,42.39
2018-06-17T10:49:58.150Z,42.36
2018-06-17T10:52:26.225Z,42.20
2018-06-17T10:54:54.612Z,42.26
2018-06-17T10:57:23.667Z,42.24
2018-06-17T10:59:51.841Z,42.44
2018-06-17T11:02:19.952Z,42.91
2018-06-17T11:04:48.341Z,42.38
2018-06-17T11:07:16.462Z,43.27
2018-06-17T11:09:44.614Z,43.29
2018-06-17T11:12:13.187Z,42.76
2018-06-17T11:14:41.349Z,42.48
2018-06-17T11:17:09.740Z,42.17
2018-06-17T11:19:38.515Z,41.41
2018-06-17T11:22:06.660Z,40.93
2018-06-17T11:24:34.856Z,41.14
2018-06-17T11:27:03.380Z,39.64
2018-06-17T11:29:31.475Z,40.01
2018-06-17T11:31:59.561Z,40.29
2018-06-17T11:34:28.051Z,40.87
2018-06-17T11:36:56.150Z,41.15
2018-06-17T11:39:24.565Z,40.01
2018-06-17T11:41:53.269Z,38.03
2018-06-17T11:44:21.561Z,38.37
2018-06-17T11:46:49.767Z,38.96
2018-06-17T11:49:17.862Z,38.38
2018-06-17T11:51:46.039Z,39.02
2018-06-17T11:54:14.336Z,39.05
2018-06-17T11:56:42.918Z,38.27
2018-06-17T11:59:11.221Z,38.08
2018-06-17T12:01:39.408Z,38.60
2018-06-17T12:04:07.725Z,38.05
2018-06-17T12:06:37.346Z,37.68
2018-06-17T12:09:09.492Z,37.51
2018-06-17T12:11:38.489Z,37.85
2018-06-17T12:14:06.919Z,36.75
2018-06-17T12:16:35.472Z,36.64
2018-06-17T12:19:04.180Z,35.95
2018-06-17T12:21:32.414Z,36.00
2018-06-17T12:24:00.540Z,36.52
2018-06-17T12:26:29.528Z,36.05
2018-06-17T12:28:57.785Z,36.48
2018-06-17T12:31:26.289Z,36.54
2018-06-17T12:33:54.540Z,36.34
2018-06-17T12:36:22.720Z,36.70
2018-06-17T12:38:50.869Z,37.30
2018-06-17T12:41:19.172Z,37.66
2018-06-17T12:43:47.248Z,37.93
2018-06-17T12:46:16.560Z,37.92
2018-06-17T12:48:44.798Z,37.65
2018-06-17T12:51:13.255Z,38.01
2018-06-17T12:53:41.812Z,37.91
2018-06-17T12:56:09.998Z,37.89
2018-06-17T12:58:38.579Z,38.06
2018-06-17T13:01:07.184Z,38.70
2018-06-17T13:03:35.346Z,39.01
2018-06-17T13:06:04.100Z,38.08
2018-06-17T13:08:32.332Z,37.69
2018-06-17T13:11:00.629Z,37.66
2018-06-17T13:13:29.402Z,38.17
2018-06-17T13:15:57.837Z,37.96
2018-06-17T13:18:26.495Z,38.14
2018-06-17T13:20:54.780Z,37.81
2018-06-17T13:23:23.383Z,38.73
2018-06-17T13:25:51.791Z,38.71
2018-06-17T13:28:19.987Z,39.21
2018-06-17T13:30:48.076Z,39.08
2018-06-17T13:33:16.527Z,39.37
2018-06-17T13:35:45.702Z,39.03
2018-06-17T13:38:14.257Z,38.88
2018-06-17T13:40:43.282Z,38.78
2018-06-17T13:43:11.437Z,38.67
2018-06-17T13:45:39.573Z,38.78
2018-06-17T13:48:09.031Z,37.92
2018-06-17T13:50:37.780Z,37.81
2018-06-17T13:53:05.944Z,38.46
2018-06-17T13:55:34.509Z,38.71
2018-06-17T13:58:02.916Z,39.02
2018-06-17T14:00:31.260Z,39.17
2018-06-17T14:02:59.861Z,39.81
2018-06-17T14:05:28.089Z,39.79
2018-06-17T14:07:56.224Z,38.65
2018-06-17T14:10:24.698Z,38.24
2018-06-17T14:12:53.072Z,37.89
2018-06-17T14:15:21.287Z,37.41
2018-06-17T14:17:49.395Z,37.92
2018-06-17T14:20:18.079Z,37.35
2018-06-17T14:22:46.268Z,37.51
2018-06-17T14:25:14.837Z,37.60
2018-06-17T14:27:42.966Z,37.82
2018-06-17T14:30:11.121Z,37.03
2018-06-17T14:32:40.081Z,36.50
2018-06-17T14:35:08.281Z,36.01
2018-06-17T14:37:36.544Z,36.86
2018-06-17T14:40:05.257Z,36.78
2018-06-17T14:42:38.801Z,36.86
2018-06-17T14:45:12.329Z,35.96
2018-06-17T14:47:46.213Z,34.94
2018-06-17T14:50:19.843Z,35.11
2018-06-17T14:52:53.589Z,34.75
2018-06-17T14:55:21.981Z,35.19
2018-06-17T14:57:50.117Z,35.83
2018-06-17T15:00:18.448Z,36.30
2018-06-17T15:02:47.004Z,36.51
2018-06-17T15:05:15.462Z,36.47
2018-06-17T15:07:43.733Z,36.28
2018-06-17T15:10:11.888Z,34.97
2018-06-17T15:12:40.145Z,35.17
2018-06-17T15:15:10.420Z,34.98
2018-06-17T15:17:38.581Z,35.14
2018-06-17T15:20:06.740Z,35.13
2018-06-17T15:22:35.528Z,35.42
2018-06-17T15:25:04.459Z,36.19
2018-06-17T15:27:32.644Z,36.54
2018-06-17T15:30:00.960Z,36.48
2018-06-17T15:32:34.559Z,37.09
2018-06-17T15:35:08.225Z,36.78
2018-06-17T15:37:41.824Z,36.39
2018-06-17T15:40:10.447Z,35.54
2018-06-17T15:42:38.627Z,35.94
2018-06-17T15:45:07.061Z,36.25
2018-06-17T15:47:35.573Z,36.49
2018-06-17T15:50:04.064Z,36.34
2018-06-17T15:52:33.431Z,36.16
2018-06-17T15:55:03.594Z,36.28
2018-06-17T15:57:31.861Z,35.81
2018-06-17T16:00:00.265Z,35.68
2018-06-17T16:02:28.802Z,36.08
2018-06-17T16:04:57.345Z,36.07
2018-06-17T16:07:25.607Z,36.39
2018-06-17T16:09:53.909Z,36.16
2018-06-17T16:12:27.490Z,36.36
2018-06-17T16:15:01.486Z,36.09
2018-06-17T16:17:35.405Z,36.39
2018-06-17T16:20:10.038Z,36.62
2018-06-17T16:22:38.281Z,35.90
2018-06-17T16:25:06.521Z,35.95
2018-06-17T16:27:37.009Z,36.11
2018-06-17T16:30:05.837Z,36.21
2018-06-17T16:32:34.105Z,36.00
2018-06-17T16:35:02.290Z,36.82
2018-06-17T16:37:30.624Z,36.83
2018-06-17T16:39:59.529Z,37.13
2018-06-17T16:42:28.250Z,37.86
2018-06-17T16:44:56.407Z,37.86
2018-06-17T16:47:25.065Z,38.25
2018-06-17T16:49:53.393Z,38.64
2018-06-17T16:52:26.998Z,39.16
2018-06-17T16:55:01.171Z,39.43
2018-06-17T16:57:34.774Z,39.85
2018-06-17T17:00:10.547Z,40.41
2018-06-17T17:02:38.659Z,40.68
2018-06-17T17:05:06.773Z,40.87
2018-06-17T17:07:35.705Z,41.01
2018-06-17T17:10:04.678Z,41.10
2018-06-17T17:12:33.096Z,41.13
2018-06-17T17:15:01.507Z,41.64
2018-06-17T17:17:30.098Z,41.29
2018-06-17T17:19:58.910Z,41.26
2018-06-17T17:22:27.722Z,41.15
2018-06-17T17:24:56.698Z,41.40
2018-06-17T17:27:25.453Z,41.64
2018-06-17T17:29:53.964Z,41.97
2018-06-17T17:32:27.725Z,42.00
2018-06-17T17:35:01.254Z,41.96
2018-06-17T17:37:35.194Z,42.27
2018-06-17T17:40:10.046Z,42.40
2018-06-17T17:42:40.836Z,42.63
2018-06-17T17:45:15.956Z,42.73
2018-06-17T17:47:44.632Z,42.77
2018-06-17T17:50:17.335Z,43.02
2018-06-17T17:52:46.433Z,43.31
2018-06-17T17:55:25.027Z,43.34
2018-06-17T17:58:05.060Z,43.24
2018-06-17T18:00:37.660Z,43.54
2018-06-17T18:03:07.125Z,43.68
2018-06-17T18:05:45.461Z,43.84
2018-06-17T18:08:16.147Z,43.93
2018-06-17T18:10:52.404Z,43.88
2018-06-17T18:13:21.348Z,44.13
2018-06-17T18:15:53.564Z,44.23
2018-06-17T18:18:25.022Z,44.24
2018-06-17T18:20:55.024Z,44.31
2018-06-17T18:23:37.740Z,44.21
2018-06-17T18:26:14.626Z,44.37
2018-06-17T18:28:57.508Z,44.34
2018-06-17T18:31:29.776Z,44.48
2018-06-17T18:34:10.370Z,44.59
2018-06-17T18:36:39.298Z,44.71
2018-06-17T18:39:08.272Z,44.76
2018-06-17T18:41:37.405Z,44.88
2018-06-17T18:44:06.173Z,44.97
2018-06-17T18:46:34.261Z,45.11
2018-06-17T18:49:02.763Z,45.22
2018-06-17T18:51:31.389Z,45.31
2018-06-17T18:53:59.585Z,45.45
2018-06-17T18:56:27.849Z,45.52
2018-06-17T18:58:56.259Z,45.64
2018-06-17T19:01:24.464Z,45.63
2018-06-17T19:03:52.757Z,45.74
2018-06-17T19:06:21.169Z,45.81
2018-06-17T19:08:54.862Z,45.87
2018-06-17T19:11:29.679Z,45.95
2018-06-17T19:14:04.671Z,46.06
2018-06-17T19:16:38.358Z,46.11
2018-06-17T19:19:07.161Z,46.28
2018-06-17T19:21:35.590Z,46.36
2018-06-17T19:24:04.011Z,46.50
2018-06-17T19:26:32.335Z,46.68
2018-06-17T19:29:00.470Z,46.74
2018-06-17T19:31:30.722Z,46.86
2018-06-17T19:34:00.795Z,47.01
2018-06-17T19:36:29.215Z,47.05
2018-06-17T19:38:57.782Z,47.18
2018-06-17T19:41:31.919Z,47.40
2018-06-17T19:44:00.286Z,47.56
2018-06-17T19:46:28.701Z,47.64
2018-06-17T19:48:57.675Z,47.76
2018-06-17T19:51:31.288Z,47.89
2018-06-17T19:54:07.372Z,48.06
2018-06-17T19:56:41.134Z,48.27
2018-06-17T19:59:15.160Z,48.34
2018-06-17T20:01:44.560Z,48.49
2018-06-17T20:04:12.758Z,48.60
2018-06-17T20:06:41.525Z,48.77
2018-06-17T20:09:12.890Z,48.82
2018-06-17T20:11:41.427Z,48.91
2018-06-17T20:14:10.384Z,48.94
2018-06-17T20:16:38.610Z,49.00
2018-06-17T20:19:08.213Z,49.09
2018-06-17T20:21:37.659Z,49.17
2018-06-17T20:24:06.065Z,49.27
2018-06-17T20:26:34.717Z,49.37
2018-06-17T20:29:02.871Z,49.45
2018-06-17T20:31:31.054Z,49.54
2018-06-17T20:34:05.071Z,49.60
2018-06-17T20:36:39.498Z,49.72
2018-06-17T20:39:14.467Z,49.82
2018-06-17T20:41:48.053Z,49.87
2018-06-17T20:44:16.763Z,50.03
2018-06-17T20:46:45.153Z,50.08
2018-06-17T20:49:15.924Z,50.17
2018-06-17T20:51:44.499Z,50.35
2018-06-17T20:54:13.041Z,50.59
2018-06-17T20:56:41.328Z,50.66
2018-06-17T20:59:09.914Z,50.83
2018-06-17T21:01:38.069Z,50.97
2018-06-17T21:04:06.651Z,51.22
2018-06-17T21:06:36.032Z,51.46
2018-06-17T21:09:06.237Z,51.79
2018-06-17T21:11:34.387Z,52.05
2018-06-17T21:14:03.427Z,52.14
2018-06-17T21:16:31.682Z,52.27
2018-06-17T21:19:05.223Z,52.49
2018-06-17T21:23:39.804Z,52.71
2018-06-17T21:26:13.830Z,52.81
2018-06-17T21:28:42.035Z,52.88
2018-06-17T21:31:10.143Z,52.96
2018-06-17T21:33:38.482Z,53.08
2018-06-17T21:36:06.784Z,53.21
2018-06-17T21:38:35.772Z,53.32
2018-06-17T21:41:04.235Z,53.43
2018-06-17T21:43:32.727Z,53.55
2018-06-17T21:46:01.099Z,53.72
2018-06-17T21:48:29.165Z,53.88
2018-06-17T21:50:57.320Z,53.99
2018-06-17T21:53:25.868Z,54.12
2018-06-17T21:55:54.361Z,54.20
2018-06-17T21:58:27.812Z,54.28
2018-06-17T22:00:55.932Z,54.34
2018-06-17T22:03:24.088Z,54.38
2018-06-17T22:05:52.584Z,54.50
2018-06-17T22:08:26.409Z,54.64
2018-06-17T22:11:00.181Z,54.69
2018-06-17T22:13:32.716Z,54.79
2018-06-17T22:16:06.181Z,54.95
2018-06-17T22:18:34.551Z,55.21
2018-06-17T22:21:02.668Z,55.33
2018-06-17T22:23:30.704Z,55.65
2018-06-17T22:25:58.779Z,55.92
2018-06-17T22:28:27.127Z,56.01
2018-06-17T22:30:55.385Z,56.21
2018-06-17T22:33:23.758Z,56.43
2018-06-17T22:35:51.830Z,56.61
2018-06-17T22:38:19.936Z,56.86
2018-06-17T22:40:48.064Z,56.96
2018-06-17T22:43:16.101Z,57.13
2018-06-17T22:45:44.801Z,57.28
2018-06-17T22:48:12.903Z,57.45
2018-06-17T22:50:41.061Z,57.64
2018-06-17T22:53:20.368Z,57.71
2018-06-17T22:55:48.732Z,57.77
2018-06-17T22:58:22.641Z,57.96
2018-06-17T23:00:56.207Z,57.91
2018-06-17T23:03:29.600Z,58.20
2018-06-17T23:06:03.081Z,58.37
2018-06-17T23:08:36.660Z,58.47
2018-06-17T23:11:04.845Z,58.41
2018-06-17T23:13:33.497Z,58.54
2018-06-17T23:16:01.637Z,58.88
2018-06-17T23:18:29.952Z,59.32
2018-06-17T23:20:58.005Z,59.62
2018-06-17T23:23:26.147Z,59.82
2018-06-17T23:25:54.257Z,59.98
2018-06-17T23:28:22.458Z,60.28
2018-06-17T23:30:50.746Z,60.39
2018-06-17T23:33:18.860Z,60.80
2018-06-17T23:35:47.373Z,60.71
2018-06-17T23:38:15.728Z,60.76
2018-06-17T23:40:44.116Z,60.74
2018-06-17T23:43:12.189Z,60.78
2018-06-17T23:45:48.971Z,60.93
2018-06-17T23:48:23.450Z,61.03
